Point Reyes Station, CA

5:24 PM PST on December 27, 2014 (GMT -0800)
Point Reyes Mesa bluff | Change Station
CLOSE
Current Station
Personal Weather Station
Location: Point Reyes Station, CA
Elevation: 70 ft
Nearby Weather Stations

Elev 70 ft 38.08 °N, 122.82 °W | Updated 36 seconds ago

Clear
Clear
46.3 °F
Feels Like 46 °F
N
0.0
Wind Variable Wind from ESE
Gusts 1.0 mph

Today
High -- | Low -- °F
--% Chance of Precip.
Yesterday
High -- | Low -- °F
Precip. -- in
7:26 AM 4:58 PM
Waxing Crescent, 42% visible
Pressure 30.34 in
Visibility 10.0 miles
Clouds Clear
Windchill 46 °F
Dew Point 40 °F
Humidity 78%
Rainfall 0.00 in
Snow Depth Not available.
UV 0 out of 12
Pollen 5.70 out of 12
Air Quality Not available.
Flu Activity Not available.
METAR KAPC 280054Z AUTO 11004KT 10SM CLR 08/03 A3036 RMK AO2 SLP272 T00830033 $

More Conditions Fewer Conditions

Pressure 30.34 in
Visibility 10.0 miles
Clouds Clear
Windchill 46 °F
Dew Point 40 °F
Humidity 78%
Rainfall 0.00 in
Snow Depth Not available.
UV 0 out of 12
Pollen 5.70 out of 12
Air Quality Not available.
Flu Activity Not available.
METAR KAPC 280054Z AUTO 11004KT 10SM CLR 08/03 A3036 RMK AO2 SLP272 T00830033 $

More Conditions Fewer Conditions

10-Day Weather Forecast

Almanac

Astronomy

Dec. 27, 2014 Rise Set
Actual Time
Civil Twilight
Nautical Twilight
Astronomical Twilight
Moon
Length of Visible Light
Length of Day
Tomorrow will be .
, % of the Moon is Illuminated

Today's Extremes

State Highs State Lows

Community

WunderPhotos

Upload Photos

1,781,120 photos uploaded!

WunderBlogs® & News

Nearby

Air Quality

  Air Quality AQ Index Pollutant
Not available.

Snow Depth

Station Depth Elevation

Earthquake Activity

City Distance Mag. Time & Date
Minimum magnitude displayed is 2.5.

Coastal Water Temperatures

Place Temperature

Nearby Weather Stations